createdAt,value
2023-05-14T00:02:07.078Z,13.17
2023-05-14T00:04:42.846Z,13.10
2023-05-14T00:07:12.109Z,13.12
2023-05-14T00:09:53.036Z,13.06
2023-05-14T00:12:27.065Z,13.01
2023-05-14T00:14:57.401Z,12.89
2023-05-14T00:17:27.078Z,12.98
2023-05-14T00:19:57.169Z,12.89
2023-05-14T00:22:27.355Z,12.92
2023-05-14T00:24:56.512Z,12.84
2023-05-14T00:27:29.551Z,12.81
2023-05-14T00:30:03.203Z,12.80
2023-05-14T00:32:35.132Z,12.67
2023-05-14T00:35:08.645Z,12.70
2023-05-14T00:37:40.646Z,12.62
2023-05-14T00:40:13.298Z,12.64
2023-05-14T00:42:45.498Z,12.52
2023-05-14T00:45:18.361Z,12.55
2023-05-14T00:47:56.937Z,12.55
2023-05-14T00:50:28.359Z,12.38
2023-05-14T00:52:57.463Z,12.27
2023-05-14T00:55:33.231Z,12.30
2023-05-14T00:58:19.718Z,12.40
2023-05-14T01:00:50.418Z,12.42
2023-05-14T01:03:20.837Z,12.46
2023-05-14T01:05:55.718Z,12.51
2023-05-14T01:08:40.476Z,12.51
2023-05-14T01:11:19.320Z,12.56
2023-05-14T01:13:51.596Z,12.61
2023-05-14T01:16:24.709Z,12.56
2023-05-14T01:18:56.661Z,12.47
2023-05-14T01:21:39.229Z,12.26
2023-05-14T01:24:11.675Z,12.25
2023-05-14T01:26:43.512Z,12.35
2023-05-14T01:29:18.920Z,12.29
2023-05-14T01:31:55.561Z,12.23
2023-05-14T01:34:25.441Z,12.18
2023-05-14T01:37:17.116Z,12.16
2023-05-14T01:39:50.627Z,12.15
2023-05-14T01:42:24.657Z,12.10
2023-05-14T01:44:53.652Z,12.10
2023-05-14T01:47:24.037Z,12.04
2023-05-14T01:49:57.944Z,11.86
2023-05-14T01:52:30.291Z,11.86
2023-05-14T01:55:03.966Z,11.93
2023-05-14T01:57:35.270Z,11.88
2023-05-14T02:00:05.288Z,11.77
2023-05-14T02:02:37.048Z,11.78
2023-05-14T02:05:13.552Z,11.70
2023-05-14T02:07:48.917Z,11.64
2023-05-14T02:10:21.015Z,11.71
2023-05-14T02:13:06.895Z,11.65
2023-05-14T02:15:39.137Z,11.65
2023-05-14T02:18:09.813Z,11.65
2023-05-14T02:20:38.995Z,11.65
2023-05-14T02:23:11.088Z,11.60
2023-05-14T02:25:45.041Z,11.55
2023-05-14T02:28:17.573Z,11.56
2023-05-14T02:30:46.764Z,11.56
2023-05-14T02:33:23.228Z,11.42
2023-05-14T02:35:52.431Z,11.49
2023-05-14T02:38:23.054Z,11.54
2023-05-14T02:40:52.207Z,11.62
2023-05-14T02:43:21.666Z,11.68
2023-05-14T02:45:50.774Z,11.69
2023-05-14T02:48:19.931Z,11.75
2023-05-14T02:50:56.612Z,11.74
2023-05-14T02:53:37.295Z,11.68
2023-05-14T02:56:08.973Z,11.69
2023-05-14T02:58:39.908Z,11.67
2023-05-14T03:01:12.127Z,11.54
2023-05-14T03:03:46.476Z,11.56
2023-05-14T03:06:19.017Z,11.52
2023-05-14T03:08:50.640Z,11.54
2023-05-14T03:11:23.902Z,11.58
2023-05-14T03:13:55.742Z,11.54
2023-05-14T03:16:29.370Z,11.47
2023-05-14T03:18:58.596Z,11.43
2023-05-14T03:21:35.582Z,11.47
2023-05-14T03:24:12.539Z,11.44
2023-05-14T03:26:42.019Z,11.33
2023-05-14T03:29:20.429Z,11.38
2023-05-14T03:31:51.473Z,11.33
2023-05-14T03:34:23.956Z,11.29
2023-05-14T03:36:54.685Z,11.32
2023-05-14T03:39:33.174Z,11.31
2023-05-14T03:42:14.063Z,11.34
2023-05-14T03:44:45.640Z,11.36
2023-05-14T03:47:19.786Z,11.29
2023-05-14T03:49:49.376Z,11.28
2023-05-14T03:52:18.885Z,11.31
2023-05-14T03:54:49.815Z,11.38
2023-05-14T03:57:18.962Z,11.28
2023-05-14T03:59:50.566Z,11.48
2023-05-14T04:02:21.459Z,11.44
2023-05-14T04:04:52.950Z,11.58
2023-05-14T04:07:28.117Z,11.63
2023-05-14T04:10:01.141Z,11.67
2023-05-14T04:12:31.991Z,11.73
2023-05-14T04:15:05.877Z,11.81
2023-05-14T04:17:37.741Z,11.80
2023-05-14T04:20:10.637Z,11.80
2023-05-14T04:22:42.489Z,11.86
2023-05-14T04:25:15.636Z,11.92
2023-05-14T04:27:52.719Z,11.97
2023-05-14T04:30:25.023Z,12.05
2023-05-14T04:32:55.817Z,12.08
2023-05-14T04:35:25.290Z,12.18
2023-05-14T04:38:01.017Z,12.28
2023-05-14T04:40:31.965Z,12.29
2023-05-14T04:43:01.304Z,12.40
2023-05-14T04:45:34.267Z,12.46
2023-05-14T04:48:08.037Z,12.56
2023-05-14T04:50:46.845Z,12.57
2023-05-14T04:53:16.218Z,12.65
2023-05-14T04:55:47.161Z,12.77
2023-05-14T04:58:16.548Z,12.98
2023-05-14T05:00:50.883Z,13.21
2023-05-14T05:03:29.226Z,13.35
2023-05-14T05:06:03.342Z,13.38
2023-05-14T05:08:35.620Z,13.39
2023-05-14T05:11:10.269Z,13.48
2023-05-14T05:13:57.072Z,13.68
2023-05-14T05:16:26.096Z,13.66
2023-05-14T05:18:55.569Z,13.76
2023-05-14T05:21:27.285Z,13.92
2023-05-14T05:23:58.242Z,13.90
2023-05-14T05:26:30.567Z,14.10
2023-05-14T05:29:05.066Z,14.16
2023-05-14T05:31:44.731Z,14.26
2023-05-14T05:34:19.484Z,14.47
2023-05-14T05:36:51.520Z,14.60
2023-05-14T05:39:22.683Z,14.65
2023-05-14T05:41:53.329Z,14.86
2023-05-14T05:44:23.625Z,14.94
2023-05-14T05:47:00.871Z,15.02
2023-05-14T05:49:34.902Z,15.15
2023-05-14T05:52:09.295Z,15.13
2023-05-14T05:54:43.681Z,15.27
2023-05-14T05:57:27.689Z,15.29
2023-05-14T05:59:59.695Z,15.30
2023-05-14T06:02:28.932Z,15.43
2023-05-14T06:04:58.812Z,15.43
2023-05-14T06:07:32.853Z,15.48
2023-05-14T06:10:02.394Z,15.48
2023-05-14T06:12:33.383Z,15.41
2023-05-14T06:15:05.931Z,15.45
2023-05-14T06:17:36.919Z,15.48
2023-05-14T06:20:08.247Z,15.25
2023-05-14T06:22:41.961Z,15.26
2023-05-14T06:25:20.453Z,15.18
2023-05-14T06:27:57.572Z,15.21
2023-05-14T06:30:29.165Z,15.23
2023-05-14T06:33:02.155Z,15.40
2023-05-14T06:35:33.211Z,15.34
2023-05-14T06:38:06.718Z,15.41
2023-05-14T06:40:40.913Z,15.47
2023-05-14T06:43:18.862Z,15.46
2023-05-14T06:45:50.857Z,15.65
2023-05-14T06:48:23.592Z,15.67
2023-05-14T06:50:53.143Z,15.71
2023-05-14T06:53:29.394Z,15.87
2023-05-14T06:56:00.280Z,15.87
2023-05-14T06:58:37.157Z,16.00
2023-05-14T07:01:09.490Z,16.14
2023-05-14T07:03:43.913Z,16.12
2023-05-14T07:06:22.190Z,16.24
2023-05-14T07:08:55.489Z,16.20
2023-05-14T07:11:26.467Z,16.34
2023-05-14T07:14:01.704Z,16.55
2023-05-14T07:16:33.116Z,16.64
2023-05-14T07:19:04.380Z,16.57
2023-05-14T07:21:34.178Z,16.81
2023-05-14T07:24:08.865Z,16.86
2023-05-14T07:26:38.473Z,16.78
2023-05-14T07:29:09.138Z,16.88
2023-05-14T07:31:45.078Z,17.12
2023-05-14T07:34:16.717Z,17.17
2023-05-14T07:36:54.236Z,17.13
2023-05-14T07:39:30.583Z,17.21
2023-05-14T07:42:05.822Z,17.32
2023-05-14T07:44:45.312Z,17.55
2023-05-14T07:47:24.851Z,17.74
2023-05-14T07:50:05.207Z,17.76
2023-05-14T07:52:53.732Z,17.84
2023-05-14T07:55:31.435Z,17.76
2023-05-14T07:58:02.309Z,17.83
2023-05-14T08:00:34.254Z,17.91
2023-05-14T08:03:05.941Z,18.11
2023-05-14T08:05:42.582Z,18.28
2023-05-14T08:08:17.273Z,18.19
2023-05-14T08:10:52.887Z,18.24
2023-05-14T08:13:30.973Z,18.40
2023-05-14T08:16:13.084Z,18.60
2023-05-14T08:18:50.350Z,18.41
2023-05-14T08:21:21.135Z,18.37
2023-05-14T08:23:56.122Z,18.47
2023-05-14T08:26:29.357Z,18.68
2023-05-14T08:29:03.718Z,18.69
2023-05-14T08:31:36.851Z,18.44
2023-05-14T08:34:12.769Z,18.64
2023-05-14T08:36:50.175Z,18.84
2023-05-14T08:39:23.074Z,18.61
2023-05-14T08:42:00.212Z,19.01
2023-05-14T08:44:39.654Z,18.89
2023-05-14T08:47:12.186Z,18.95
2023-05-14T08:49:50.359Z,19.09
2023-05-14T08:52:24.583Z,19.13
2023-05-14T08:54:55.915Z,19.03
2023-05-14T08:57:27.352Z,18.98
2023-05-14T08:59:58.531Z,19.11
2023-05-14T09:02:35.910Z,19.17
2023-05-14T09:05:10.666Z,19.13
2023-05-14T09:07:45.028Z,19.27
2023-05-14T09:10:16.016Z,19.14
2023-05-14T09:12:51.424Z,19.38
2023-05-14T09:15:27.204Z,19.29
2023-05-14T09:18:00.007Z,19.21
2023-05-14T09:20:29.720Z,19.07
2023-05-14T09:23:02.096Z,19.31
2023-05-14T09:25:35.447Z,19.34
2023-05-14T09:28:10.461Z,19.23
2023-05-14T09:30:40.116Z,19.10
2023-05-14T09:33:22.635Z,19.40
2023-05-14T09:35:53.568Z,19.36
2023-05-14T09:38:38.489Z,19.66
2023-05-14T09:41:24.694Z,19.68
2023-05-14T09:43:57.643Z,19.60
2023-05-14T09:46:32.282Z,19.85
2023-05-14T09:49:02.626Z,19.89
2023-05-14T09:51:33.379Z,19.94
2023-05-14T09:54:03.058Z,20.06
2023-05-14T09:56:39.272Z,20.04
2023-05-14T09:59:15.763Z,20.44
2023-05-14T10:01:51.082Z,20.35
2023-05-14T10:04:21.815Z,20.41
2023-05-14T10:06:52.155Z,20.36
2023-05-14T10:09:28.588Z,20.92
2023-05-14T10:12:00.769Z,21.08
2023-05-14T10:14:38.076Z,21.09
2023-05-14T10:17:18.874Z,20.53
2023-05-14T10:20:19.079Z,21.15
2023-05-14T10:22:49.761Z,21.13
2023-05-14T10:25:32.242Z,20.99
2023-05-14T10:28:07.336Z,20.94
2023-05-14T10:30:41.456Z,20.74
2023-05-14T10:33:22.642Z,20.82
2023-05-14T10:36:11.635Z,21.06
2023-05-14T10:38:45.444Z,21.30
2023-05-14T10:41:22.157Z,20.75
2023-05-14T10:44:04.428Z,20.76
2023-05-14T10:46:39.241Z,20.25
2023-05-14T10:49:10.737Z,20.33
2023-05-14T10:51:44.298Z,20.00
2023-05-14T10:54:16.917Z,20.15
2023-05-14T10:56:51.181Z,20.15
2023-05-14T10:59:23.171Z,20.20
2023-05-14T11:04:48.357Z,20.16
2023-05-14T11:07:19.684Z,20.37
2023-05-14T11:09:50.203Z,20.07
2023-05-14T11:12:21.634Z,20.14
2023-05-14T11:15:01.202Z,20.20
2023-05-14T11:17:39.277Z,20.15
2023-05-14T11:20:17.529Z,20.56
2023-05-14T11:22:57.551Z,20.49
2023-05-14T11:25:30.002Z,20.25
2023-05-14T11:28:03.298Z,19.94
2023-05-14T11:30:42.498Z,19.98
2023-05-14T11:33:13.761Z,20.08
2023-05-14T11:35:45.870Z,20.02
2023-05-14T11:38:18.315Z,20.07
2023-05-14T11:40:58.141Z,20.10
2023-05-14T11:43:32.006Z,20.44
2023-05-14T11:46:01.426Z,20.87
2023-05-14T11:48:40.543Z,20.62
2023-05-14T11:51:10.960Z,20.73
2023-05-14T11:53:55.034Z,20.79
2023-05-14T11:56:36.724Z,20.61
2023-05-14T11:59:08.014Z,21.05
2023-05-14T12:01:48.547Z,21.41
2023-05-14T12:04:27.406Z,21.24
2023-05-14T12:06:58.851Z,21.39
2023-05-14T12:09:30.035Z,21.51
2023-05-14T12:12:05.540Z,21.18
2023-05-14T12:14:38.637Z,21.35
2023-05-14T12:17:20.933Z,21.33
2023-05-14T12:20:00.197Z,21.47
2023-05-14T12:22:33.549Z,21.42
2023-05-14T12:25:05.879Z,21.11
2023-05-14T12:27:41.332Z,21.04
2023-05-14T12:32:52.101Z,20.72
2023-05-14T12:35:27.962Z,20.92
2023-05-14T12:38:06.837Z,21.04
2023-05-14T12:40:44.576Z,20.94
2023-05-14T12:43:19.995Z,21.36
2023-05-14T12:45:51.581Z,21.45
2023-05-14T12:48:23.287Z,21.80
2023-05-14T12:50:57.036Z,22.00
2023-05-14T12:53:30.013Z,21.80
2023-05-14T12:56:02.810Z,21.80
2023-05-14T12:58:32.548Z,21.71
2023-05-14T13:01:05.438Z,21.97
2023-05-14T13:03:35.346Z,22.30
2023-05-14T13:06:09.504Z,22.47
2023-05-14T13:08:42.559Z,22.16
2023-05-14T13:11:19.126Z,22.20
2023-05-14T13:14:00.809Z,22.37
2023-05-14T13:16:31.815Z,22.45
2023-05-14T13:19:05.691Z,22.36
2023-05-14T13:21:37.765Z,21.85
2023-05-14T13:24:17.068Z,21.85
2023-05-14T13:26:51.797Z,21.66
2023-05-14T13:29:23.370Z,21.75
2023-05-14T13:31:55.228Z,21.55
2023-05-14T13:34:28.539Z,21.47
2023-05-14T13:36:59.735Z,21.66
2023-05-14T13:39:31.789Z,21.56
2023-05-14T13:42:05.439Z,21.64
2023-05-14T13:44:41.551Z,21.65
2023-05-14T13:47:23.047Z,21.35
2023-05-14T13:50:18.905Z,21.73
2023-05-14T13:52:55.654Z,21.72
2023-05-14T13:55:27.687Z,21.87
2023-05-14T13:58:12.068Z,21.79
2023-05-14T14:00:48.168Z,21.77
2023-05-14T14:03:19.494Z,21.97
2023-05-14T14:05:51.307Z,22.02
2023-05-14T14:08:26.691Z,21.60
2023-05-14T14:11:07.780Z,21.67
2023-05-14T14:13:40.666Z,21.99
2023-05-14T14:16:10.915Z,21.87
2023-05-14T14:18:44.906Z,22.22
2023-05-14T14:21:16.059Z,21.95
2023-05-14T14:23:52.024Z,22.19
2023-05-14T14:26:25.384Z,21.97
2023-05-14T14:28:59.230Z,21.59
2023-05-14T14:31:30.041Z,21.56
2023-05-14T14:34:05.909Z,21.37
2023-05-14T14:36:39.018Z,21.19
2023-05-14T14:39:09.233Z,21.06
2023-05-14T14:41:53.824Z,20.97
2023-05-14T14:44:27.430Z,20.57
2023-05-14T14:46:57.759Z,20.52
2023-05-14T14:52:23.482Z,20.61
2023-05-14T14:54:54.443Z,20.61
2023-05-14T14:57:23.895Z,20.43
2023-05-14T15:00:02.151Z,20.56
2023-05-14T15:02:38.786Z,20.56
2023-05-14T15:05:17.180Z,20.90
2023-05-14T15:07:48.636Z,20.90
2023-05-14T15:10:28.489Z,20.69
2023-05-14T15:12:59.691Z,20.75
2023-05-14T15:15:39.704Z,20.58
2023-05-14T15:18:15.591Z,20.41
2023-05-14T15:20:51.918Z,20.48
2023-05-14T15:23:24.789Z,20.83
2023-05-14T15:25:57.827Z,21.09
2023-05-14T15:28:30.137Z,20.90
2023-05-14T15:31:07.369Z,21.33
2023-05-14T15:33:39.072Z,21.62
2023-05-14T15:36:12.898Z,21.44
2023-05-14T15:38:48.151Z,21.76
2023-05-14T15:41:34.194Z,22.12
2023-05-14T15:44:07.747Z,22.49
2023-05-14T15:46:57.426Z,22.02
2023-05-14T15:52:35.957Z,22.69
2023-05-14T15:55:09.136Z,22.54
2023-05-14T15:57:39.751Z,22.48
2023-05-14T16:00:15.485Z,21.90
2023-05-14T16:02:50.269Z,21.49
2023-05-14T16:05:23.591Z,21.63
2023-05-14T16:07:53.231Z,21.55
2023-05-14T16:10:27.213Z,21.51
2023-05-14T16:12:59.052Z,21.21
2023-05-14T16:15:35.564Z,20.74
2023-05-14T16:18:12.876Z,20.75
2023-05-14T16:20:42.890Z,20.47
2023-05-14T16:23:18.474Z,20.79
2023-05-14T16:25:48.897Z,20.08
2023-05-14T16:28:29.022Z,20.43
2023-05-14T16:31:00.853Z,20.16
2023-05-14T16:33:43.615Z,20.27
2023-05-14T16:36:12.896Z,20.64
2023-05-14T16:39:06.795Z,20.45
2023-05-14T16:41:46.225Z,20.73
2023-05-14T16:44:16.931Z,20.64
2023-05-14T16:46:54.615Z,20.66
2023-05-14T16:49:34.166Z,20.64
2023-05-14T16:52:03.387Z,20.52
2023-05-14T16:54:45.050Z,20.52
2023-05-14T16:57:17.583Z,20.60
2023-05-14T16:59:46.795Z,20.64
2023-05-14T17:02:18.942Z,20.67
2023-05-14T17:04:54.868Z,20.63
2023-05-14T17:07:31.301Z,20.56
2023-05-14T17:10:04.833Z,20.82
2023-05-14T17:12:37.865Z,20.28
2023-05-14T17:15:12.522Z,20.10
2023-05-14T17:17:49.422Z,19.97
2023-05-14T17:20:21.421Z,19.56
2023-05-14T17:22:53.254Z,19.29
2023-05-14T17:25:24.150Z,19.34
2023-05-14T17:27:55.558Z,19.18
2023-05-14T17:30:25.014Z,19.18
2023-05-14T17:32:54.960Z,18.97
2023-05-14T17:35:31.033Z,18.86
2023-05-14T17:38:07.126Z,18.65
2023-05-14T17:40:41.272Z,18.81
2023-05-14T17:43:19.438Z,18.61
2023-05-14T17:45:54.427Z,18.52
2023-05-14T17:48:24.390Z,18.72
2023-05-14T17:50:58.766Z,18.49
2023-05-14T17:53:34.793Z,18.49
2023-05-14T17:56:12.219Z,18.28
2023-05-14T17:58:46.642Z,18.44
2023-05-14T18:01:21.610Z,18.27
2023-05-14T18:03:54.915Z,18.37
2023-05-14T18:06:30.022Z,18.15
2023-05-14T18:09:12.292Z,18.09
2023-05-14T18:11:46.770Z,18.02
2023-05-14T18:14:36.026Z,17.99
2023-05-14T18:17:14.697Z,17.98
2023-05-14T18:19:49.351Z,18.00
2023-05-14T18:22:24.656Z,18.02
2023-05-14T18:25:04.329Z,18.07
2023-05-14T18:27:47.338Z,18.08
2023-05-14T18:30:27.056Z,17.97
2023-05-14T18:32:59.315Z,17.95
2023-05-14T18:35:39.129Z,17.86
2023-05-14T18:38:18.169Z,17.79
2023-05-14T18:40:49.791Z,17.86
2023-05-14T18:43:36.166Z,17.79
2023-05-14T18:46:09.655Z,17.87
2023-05-14T18:48:51.067Z,17.64
2023-05-14T18:51:23.574Z,17.66
2023-05-14T18:53:59.823Z,17.70
2023-05-14T18:56:34.163Z,17.65
2023-05-14T18:59:07.965Z,17.58
2023-05-14T19:01:41.088Z,17.53
2023-05-14T19:04:26.604Z,17.33
2023-05-14T19:07:01.443Z,17.31
2023-05-14T19:09:41.937Z,17.25
2023-05-14T19:12:13.684Z,17.20
2023-05-14T19:14:51.956Z,17.14
2023-05-14T19:17:25.049Z,17.25
2023-05-14T19:20:00.719Z,17.21
2023-05-14T19:22:37.989Z,17.27
2023-05-14T19:25:16.106Z,17.21
2023-05-14T19:27:51.641Z,17.21
2023-05-14T19:30:25.067Z,17.04
2023-05-14T19:33:01.145Z,17.08
2023-05-14T19:35:36.784Z,16.97
2023-05-14T19:38:09.561Z,16.88
2023-05-14T19:40:46.557Z,16.79
2023-05-14T19:43:23.027Z,16.67
2023-05-14T19:45:52.642Z,16.50
2023-05-14T19:48:33.812Z,16.55
2023-05-14T19:51:16.721Z,16.64
2023-05-14T19:53:50.316Z,16.69
2023-05-14T19:56:27.230Z,16.50
2023-05-14T19:59:04.884Z,16.58
2023-05-14T20:01:43.579Z,16.53
2023-05-14T20:04:18.202Z,16.16
2023-05-14T20:06:57.562Z,16.31
2023-05-14T20:09:27.512Z,16.34
2023-05-14T20:12:00.996Z,16.36
2023-05-14T20:14:37.066Z,16.53
2023-05-14T20:17:06.881Z,16.57
2023-05-14T20:19:37.827Z,16.69
2023-05-14T20:22:11.067Z,16.67
2023-05-14T20:24:48.875Z,16.56
2023-05-14T20:27:23.150Z,16.56
2023-05-14T20:29:54.423Z,16.53
2023-05-14T20:32:26.364Z,16.51
2023-05-14T20:35:02.334Z,16.55
2023-05-14T20:37:34.729Z,16.51
2023-05-14T20:40:10.797Z,16.50
2023-05-14T20:42:55.968Z,16.41
2023-05-14T20:45:30.929Z,16.41
2023-05-14T20:48:04.058Z,16.32
2023-05-14T20:50:34.729Z,16.32
2023-05-14T20:53:03.928Z,16.31
2023-05-14T20:55:35.185Z,16.29
2023-05-14T20:58:15.610Z,16.41
2023-05-14T21:00:56.299Z,16.34
2023-05-14T21:03:31.472Z,16.32
2023-05-14T21:06:05.183Z,16.36
2023-05-14T21:08:35.963Z,16.37
2023-05-14T21:11:13.534Z,16.34
2023-05-14T21:13:44.984Z,16.43
2023-05-14T21:16:15.553Z,16.35
2023-05-14T21:18:50.384Z,16.48
2023-05-14T21:21:21.930Z,16.44
2023-05-14T21:23:51.573Z,16.57
2023-05-14T21:26:22.210Z,16.44
2023-05-14T21:28:57.970Z,16.44
2023-05-14T21:31:31.023Z,16.48
2023-05-14T21:34:15.027Z,16.51
2023-05-14T21:36:44.599Z,16.26
2023-05-14T21:39:15.564Z,16.32
2023-05-14T21:41:53.298Z,16.34
2023-05-14T21:44:25.249Z,16.35
2023-05-14T21:46:55.056Z,16.34
2023-05-14T21:49:27.113Z,16.36
2023-05-14T21:51:56.537Z,16.22
2023-05-14T21:54:29.778Z,16.30
2023-05-14T21:57:03.252Z,16.22
2023-05-14T21:59:35.183Z,16.19
2023-05-14T22:02:07.931Z,16.11
2023-05-14T22:04:42.846Z,16.13
2023-05-14T22:07:18.451Z,16.09
2023-05-14T22:09:52.752Z,15.79
2023-05-14T22:12:23.662Z,15.83
2023-05-14T22:15:05.440Z,15.90
2023-05-14T22:17:36.636Z,15.94
2023-05-14T22:20:08.213Z,15.92
2023-05-14T22:22:42.931Z,15.90
2023-05-14T22:25:29.693Z,15.81
2023-05-14T22:28:02.460Z,15.55
2023-05-14T22:30:39.749Z,15.38
2023-05-14T22:33:22.164Z,15.43
2023-05-14T22:35:51.783Z,15.17
2023-05-14T22:38:32.010Z,15.25
2023-05-14T22:41:32.039Z,15.19
2023-05-14T22:44:03.947Z,15.30
2023-05-14T22:46:39.448Z,15.19
2023-05-14T22:49:17.701Z,15.20
2023-05-14T22:51:49.120Z,15.07
2023-05-14T22:54:20.188Z,15.05
2023-05-14T22:56:56.013Z,14.91
2023-05-14T22:59:29.094Z,14.90
2023-05-14T23:01:59.795Z,15.02
2023-05-14T23:04:38.603Z,14.85
2023-05-14T23:10:07.756Z,14.59
2023-05-14T23:12:44.903Z,14.49
2023-05-14T23:15:19.768Z,14.54
2023-05-14T23:17:58.765Z,14.66
2023-05-14T23:20:29.965Z,14.48
2023-05-14T23:22:59.133Z,14.61
2023-05-14T23:25:35.550Z,14.66
2023-05-14T23:28:08.001Z,14.41
2023-05-14T23:30:42.874Z,14.37
2023-05-14T23:33:17.463Z,14.34
2023-05-14T23:35:52.480Z,14.14
2023-05-14T23:38:29.663Z,14.33
2023-05-14T23:41:02.448Z,14.33
2023-05-14T23:43:39.438Z,14.10
2023-05-14T23:46:18.717Z,14.10
2023-05-14T23:48:49.627Z,13.94
2023-05-14T23:51:21.230Z,14.09
2023-05-14T23:53:56.692Z,14.14
2023-05-14T23:56:28.596Z,13.97
2023-05-14T23:58:58.978Z,14.07
